sensor_id;sensor_type;location;lat;lon;timestamp;pressure;altitude;pressure_sealevel;temperature;humidity
71601;BME280;59446;52.192;4.628;2022-07-19T00:00:05;101926.84;;;24.74;51.30
71601;BME280;59446;52.192;4.628;2022-07-19T00:02:34;101920.00;;;24.70;51.54
71601;BME280;59446;52.192;4.628;2022-07-19T00:04:59;101923.22;;;24.62;51.78
71601;BME280;59446;52.192;4.628;2022-07-19T00:07:25;101924.91;;;24.63;52.02
71601;BME280;59446;52.192;4.628;2022-07-19T00:09:50;101917.03;;;24.62;52.09
71601;BME280;59446;52.192;4.628;2022-07-19T00:12:16;101914.72;;;24.57;52.00
71601;BME280;59446;52.192;4.628;2022-07-19T00:14:41;101915.78;;;24.54;52.18
71601;BME280;59446;52.192;4.628;2022-07-19T00:17:06;101917.81;;;24.51;52.52
71601;BME280;59446;52.192;4.628;2022-07-19T00:19:32;101918.22;;;24.45;52.86
71601;BME280;59446;52.192;4.628;2022-07-19T00:21:57;101917.25;;;24.46;52.84
71601;BME280;59446;52.192;4.628;2022-07-19T00:24:23;101913.22;;;24.40;52.44
71601;BME280;59446;52.192;4.628;2022-07-19T00:26:48;101911.28;;;24.42;52.56
71601;BME280;59446;52.192;4.628;2022-07-19T00:29:14;101913.66;;;24.34;52.70
71601;BME280;59446;52.192;4.628;2022-07-19T00:31:39;101913.31;;;24.39;52.94
71601;BME280;59446;52.192;4.628;2022-07-19T00:34:04;101925.56;;;24.41;52.28
71601;BME280;59446;52.192;4.628;2022-07-19T00:36:30;101919.06;;;24.45;52.29
71601;BME280;59446;52.192;4.628;2022-07-19T00:38:55;101918.09;;;24.46;53.02
71601;BME280;59446;52.192;4.628;2022-07-19T00:41:21;101912.78;;;24.46;52.53
71601;BME280;59446;52.192;4.628;2022-07-19T00:43:46;101912.78;;;24.46;52.66
71601;BME280;59446;52.192;4.628;2022-07-19T00:46:16;101913.75;;;24.45;52.61
71601;BME280;59446;52.192;4.628;2022-07-19T00:48:42;101915.44;;;24.46;52.46
71601;BME280;59446;52.192;4.628;2022-07-19T00:51:09;101915.88;;;24.53;52.26
71601;BME280;59446;52.192;4.628;2022-07-19T00:53:37;101907.34;;;24.61;52.57
71601;BME280;59446;52.192;4.628;2022-07-19T00:56:04;101910.13;;;24.72;51.74
71601;BME280;59446;52.192;4.628;2022-07-19T00:58:31;101906.16;;;24.77;52.41
71601;BME280;59446;52.192;4.628;2022-07-19T01:00:57;101915.00;;;24.78;52.09
71601;BME280;59446;52.192;4.628;2022-07-19T01:03:24;101908.38;;;24.83;51.89
71601;BME280;59446;52.192;4.628;2022-07-19T01:05:50;101906.22;;;24.89;51.12
71601;BME280;59446;52.192;4.628;2022-07-19T01:08:17;101905.25;;;24.90;51.57
71601;BME280;59446;52.192;4.628;2022-07-19T01:10:42;101907.53;;;24.83;51.50
71601;BME280;59446;52.192;4.628;2022-07-19T01:13:07;101905.41;;;24.75;51.21
71601;BME280;59446;52.192;4.628;2022-07-19T01:15:33;101903.81;;;24.73;51.43
71601;BME280;59446;52.192;4.628;2022-07-19T01:17:58;101903.28;;;24.68;51.94
71601;BME280;59446;52.192;4.628;2022-07-19T01:20:24;101899.75;;;24.67;51.96
71601;BME280;59446;52.192;4.628;2022-07-19T01:22:50;101899.88;;;24.66;52.25
71601;BME280;59446;52.192;4.628;2022-07-19T01:25:16;101896.47;;;24.64;51.56
71601;BME280;59446;52.192;4.628;2022-07-19T01:27:44;101891.03;;;24.65;51.12
71601;BME280;59446;52.192;4.628;2022-07-19T01:30:14;101893.59;;;24.67;50.83
71601;BME280;59446;52.192;4.628;2022-07-19T01:32:40;101894.66;;;24.64;50.33
71601;BME280;59446;52.192;4.628;2022-07-19T01:35:07;101895.09;;;24.58;50.18
71601;BME280;59446;52.192;4.628;2022-07-19T01:37:33;101893.50;;;24.55;50.48
71601;BME280;59446;52.192;4.628;2022-07-19T01:39:58;101884.44;;;24.58;51.12
71601;BME280;59446;52.192;4.628;2022-07-19T01:42:24;101891.59;;;24.58;50.79
71601;BME280;59446;52.192;4.628;2022-07-19T01:44:50;101886.59;;;24.53;50.49
71601;BME280;59446;52.192;4.628;2022-07-19T01:47:15;101883.19;;;24.51;51.22
71601;BME280;59446;52.192;4.628;2022-07-19T01:49:41;101884.25;;;24.48;51.03
71601;BME280;59446;52.192;4.628;2022-07-19T01:52:06;101884.56;;;24.44;50.99
71601;BME280;59446;52.192;4.628;2022-07-19T01:54:32;101885.41;;;24.44;51.02
71601;BME280;59446;52.192;4.628;2022-07-19T01:56:58;101880.41;;;24.40;51.37
71601;BME280;59446;52.192;4.628;2022-07-19T01:59:24;101883.19;;;24.38;51.36
71601;BME280;59446;52.192;4.628;2022-07-19T02:01:49;101878.59;;;24.40;50.88
71601;BME280;59446;52.192;4.628;2022-07-19T02:04:15;101871.06;;;24.34;50.65
71601;BME280;59446;52.192;4.628;2022-07-19T02:06:40;101874.97;;;24.29;50.82
71601;BME280;59446;52.192;4.628;2022-07-19T02:09:05;101873.47;;;24.24;51.22
71601;BME280;59446;52.192;4.628;2022-07-19T02:11:31;101873.88;;;24.18;51.76
71601;BME280;59446;52.192;4.628;2022-07-19T02:14:08;101874.75;;;24.19;51.35
71601;BME280;59446;52.192;4.628;2022-07-19T02:16:35;101870.06;;;24.22;51.87
71601;BME280;59446;52.192;4.628;2022-07-19T02:19:01;101868.69;;;24.17;52.02
71601;BME280;59446;52.192;4.628;2022-07-19T02:21:27;101869.09;;;24.11;51.91
71601;BME280;59446;52.192;4.628;2022-07-19T02:23:52;101871.88;;;24.09;52.25
71601;BME280;59446;52.192;4.628;2022-07-19T02:26:18;101858.69;;;24.08;51.98
71601;BME280;59446;52.192;4.628;2022-07-19T02:28:43;101866.56;;;24.09;52.01
71601;BME280;59446;52.192;4.628;2022-07-19T02:31:08;101869.53;;;24.05;52.15
71601;BME280;59446;52.192;4.628;2022-07-19T02:33:34;101867.72;;;24.05;51.66
71601;BME280;59446;52.192;4.628;2022-07-19T02:35:59;101865.34;;;24.01;51.51
71601;BME280;59446;52.192;4.628;2022-07-19T02:38:25;101868.03;;;24.01;51.14
71601;BME280;59446;52.192;4.628;2022-07-19T02:40:50;101869.84;;;24.00;51.33
71601;BME280;59446;52.192;4.628;2022-07-19T02:43:16;101868.22;;;23.98;50.83
71601;BME280;59446;52.192;4.628;2022-07-19T02:45:41;101860.03;;;24.01;50.65
71601;BME280;59446;52.192;4.628;2022-07-19T02:48:09;101858.16;;;24.03;49.74
71601;BME280;59446;52.192;4.628;2022-07-19T02:50:35;101858.22;;;24.01;50.06
71601;BME280;59446;52.192;4.628;2022-07-19T02:53:01;101864.63;;;23.99;50.21
71601;BME280;59446;52.192;4.628;2022-07-19T02:55:26;101863.56;;;24.01;49.82
71601;BME280;59446;52.192;4.628;2022-07-19T02:57:52;101864.31;;;24.03;50.29
71601;BME280;59446;52.192;4.628;2022-07-19T03:00:17;101858.78;;;24.06;49.59
71601;BME280;59446;52.192;4.628;2022-07-19T03:02:42;101859.28;;;23.99;50.10
71601;BME280;59446;52.192;4.628;2022-07-19T03:05:08;101860.16;;;23.99;50.27
71601;BME280;59446;52.192;4.628;2022-07-19T03:07:34;101864.09;;;24.06;49.72
71601;BME280;59446;52.192;4.628;2022-07-19T03:10:00;101862.50;;;24.04;49.81
71601;BME280;59446;52.192;4.628;2022-07-19T03:12:26;101866.31;;;24.00;50.37
71601;BME280;59446;52.192;4.628;2022-07-19T03:14:51;101861.56;;;24.05;49.76
71601;BME280;59446;52.192;4.628;2022-07-19T03:17:16;101860.50;;;24.07;50.29
71601;BME280;59446;52.192;4.628;2022-07-19T03:19:42;101868.16;;;24.12;49.80
71601;BME280;59446;52.192;4.628;2022-07-19T03:22:07;101859.94;;;24.15;50.04
71601;BME280;59446;52.192;4.628;2022-07-19T03:24:33;101860.56;;;24.18;50.08
71601;BME280;59446;52.192;4.628;2022-07-19T03:26:58;101856.09;;;24.19;49.75
71601;BME280;59446;52.192;4.628;2022-07-19T03:29:24;101852.91;;;24.14;49.81
71601;BME280;59446;52.192;4.628;2022-07-19T03:31:49;101854.22;;;24.08;50.13
71601;BME280;59446;52.192;4.628;2022-07-19T03:34:15;101848.25;;;24.05;50.53
71601;BME280;59446;52.192;4.628;2022-07-19T03:36:40;101846.09;;;23.97;50.57
71601;BME280;59446;52.192;4.628;2022-07-19T03:39:05;101850.03;;;23.91;50.76
71601;BME280;59446;52.192;4.628;2022-07-19T03:41:31;101849.72;;;23.96;50.38
71601;BME280;59446;52.192;4.628;2022-07-19T03:43:56;101849.59;;;23.98;50.03
71601;BME280;59446;52.192;4.628;2022-07-19T03:46:22;101846.94;;;23.98;50.30
71601;BME280;59446;52.192;4.628;2022-07-19T03:48:48;101851.41;;;23.97;49.95
71601;BME280;59446;52.192;4.628;2022-07-19T03:51:14;101846.94;;;23.98;49.81
71601;BME280;59446;52.192;4.628;2022-07-19T03:53:39;101853.34;;;23.95;49.87
71601;BME280;59446;52.192;4.628;2022-07-19T03:56:05;101847.91;;;23.97;50.19
71601;BME280;59446;52.192;4.628;2022-07-19T03:58:30;101852.16;;;23.99;50.17
71601;BME280;59446;52.192;4.628;2022-07-19T04:00:56;101849.22;;;24.04;49.83
71601;BME280;59446;52.192;4.628;2022-07-19T04:03:22;101844.41;;;24.09;50.23
71601;BME280;59446;52.192;4.628;2022-07-19T04:05:47;101846.63;;;24.02;50.06
71601;BME280;59446;52.192;4.628;2022-07-19T04:08:13;101846.31;;;23.94;50.81
71601;BME280;59446;52.192;4.628;2022-07-19T04:10:40;101846.63;;;23.89;51.52
71601;BME280;59446;52.192;4.628;2022-07-19T04:13:06;101842.59;;;23.84;51.38
71601;BME280;59446;52.192;4.628;2022-07-19T04:15:31;101839.72;;;23.87;51.47
71601;BME280;59446;52.192;4.628;2022-07-19T04:17:57;101835.03;;;23.90;51.30
71601;BME280;59446;52.192;4.628;2022-07-19T04:20:22;101844.09;;;23.88;50.83
71601;BME280;59446;52.192;4.628;2022-07-19T04:22:48;101842.28;;;23.88;51.15
71601;BME280;59446;52.192;4.628;2022-07-19T04:25:13;101844.09;;;23.88;50.66
71601;BME280;59446;52.192;4.628;2022-07-19T04:27:39;101847.81;;;23.85;50.83
71601;BME280;59446;52.192;4.628;2022-07-19T04:30:05;101843.44;;;23.84;50.44
71601;BME280;59446;52.192;4.628;2022-07-19T04:32:31;101835.75;;;23.80;51.19
71601;BME280;59446;52.192;4.628;2022-07-19T04:34:57;101841.94;;;23.80;50.68
71601;BME280;59446;52.192;4.628;2022-07-19T04:37:22;101835.69;;;23.81;50.71
71601;BME280;59446;52.192;4.628;2022-07-19T04:39:48;101847.34;;;23.79;50.66
71601;BME280;59446;52.192;4.628;2022-07-19T04:42:13;101845.66;;;23.78;51.22
71601;BME280;59446;52.192;4.628;2022-07-19T04:44:39;101839.38;;;23.79;50.72
71601;BME280;59446;52.192;4.628;2022-07-19T04:47:04;101850.25;;;23.88;51.03
71601;BME280;59446;52.192;4.628;2022-07-19T04:49:30;101845.03;;;23.87;50.95
71601;BME280;59446;52.192;4.628;2022-07-19T04:51:55;101844.81;;;23.90;50.66
71601;BME280;59446;52.192;4.628;2022-07-19T04:54:20;101852.47;;;23.94;50.91
71601;BME280;59446;52.192;4.628;2022-07-19T04:56:46;101841.72;;;23.96;50.37
71601;BME280;59446;52.192;4.628;2022-07-19T04:59:11;101849.28;;;23.89;50.98
71601;BME280;59446;52.192;4.628;2022-07-19T05:01:37;101844.81;;;23.90;50.91
71601;BME280;59446;52.192;4.628;2022-07-19T05:04:02;101847.16;;;23.94;50.85
71601;BME280;59446;52.192;4.628;2022-07-19T05:06:28;101855.88;;;23.97;50.72
71601;BME280;59446;52.192;4.628;2022-07-19T05:08:53;101848.88;;;23.95;50.54
71601;BME280;59446;52.192;4.628;2022-07-19T05:11:19;101845.13;;;23.98;50.63
71601;BME280;59446;52.192;4.628;2022-07-19T05:13:45;101849.22;;;24.04;50.69
71601;BME280;59446;52.192;4.628;2022-07-19T05:16:10;101849.09;;;24.05;50.87
71601;BME280;59446;52.192;4.628;2022-07-19T05:18:36;101849.09;;;24.05;50.95
71601;BME280;59446;52.192;4.628;2022-07-19T05:21:01;101851.44;;;24.10;50.56
71601;BME280;59446;52.192;4.628;2022-07-19T05:23:27;101848.03;;;24.08;50.59
71601;BME280;59446;52.192;4.628;2022-07-19T05:25:52;101847.72;;;24.12;50.99
71601;BME280;59446;52.192;4.628;2022-07-19T05:28:18;101843.13;;;24.14;50.08
71601;BME280;59446;52.192;4.628;2022-07-19T05:30:43;101841.97;;;24.06;51.12
71601;BME280;59446;52.192;4.628;2022-07-19T05:33:09;101847.69;;;24.00;51.10
71601;BME280;59446;52.192;4.628;2022-07-19T05:35:35;101839.72;;;24.00;50.87
71601;BME280;59446;52.192;4.628;2022-07-19T05:38:00;101844.19;;;23.99;51.04
71601;BME280;59446;52.192;4.628;2022-07-19T05:40:25;101842.19;;;24.03;50.89
71601;BME280;59446;52.192;4.628;2022-07-19T05:42:51;101844.91;;;24.01;50.42
71601;BME280;59446;52.192;4.628;2022-07-19T05:45:16;101842.81;;;24.06;50.81
71601;BME280;59446;52.192;4.628;2022-07-19T05:47:41;101846.22;;;24.08;50.57
71601;BME280;59446;52.192;4.628;2022-07-19T05:50:07;101848.03;;;24.08;50.71
71601;BME280;59446;52.192;4.628;2022-07-19T05:52:33;101840.38;;;24.03;50.75
71601;BME280;59446;52.192;4.628;2022-07-19T05:54:58;101838.34;;;24.07;50.43
71601;BME280;59446;52.192;4.628;2022-07-19T05:57:24;101843.44;;;24.10;50.58
71601;BME280;59446;52.192;4.628;2022-07-19T05:59:49;101840.34;;;24.16;50.60
71601;BME280;59446;52.192;4.628;2022-07-19T06:02:15;101839.28;;;24.18;50.17
71601;BME280;59446;52.192;4.628;2022-07-19T06:04:41;101837.16;;;24.11;51.13
71601;BME280;59446;52.192;4.628;2022-07-19T06:07:07;101831.75;;;24.12;51.22
71601;BME280;59446;52.192;4.628;2022-07-19T06:09:32;101830.44;;;24.18;51.15
71601;BME280;59446;52.192;4.628;2022-07-19T06:11:58;101832.06;;;24.08;50.95
71601;BME280;59446;52.192;4.628;2022-07-19T06:14:23;101837.59;;;24.05;51.00
71601;BME280;59446;52.192;4.628;2022-07-19T06:16:49;101837.59;;;24.05;51.48
71601;BME280;59446;52.192;4.628;2022-07-19T06:19:14;101835.34;;;23.99;51.99
71601;BME280;59446;52.192;4.628;2022-07-19T06:21:39;101838.00;;;23.99;52.03
71601;BME280;59446;52.192;4.628;2022-07-19T06:24:05;101845.69;;;24.03;52.26
71601;BME280;59446;52.192;4.628;2022-07-19T06:26:30;101838.13;;;24.10;52.22
71601;BME280;59446;52.192;4.628;2022-07-19T06:28:57;101834.19;;;24.15;52.32
71601;BME280;59446;52.192;4.628;2022-07-19T06:31:22;101831.00;;;24.10;52.50
71601;BME280;59446;52.192;4.628;2022-07-19T06:33:49;101831.63;;;24.14;52.78
71601;BME280;59446;52.192;4.628;2022-07-19T06:36:15;101844.19;;;24.12;52.81
71601;BME280;59446;52.192;4.628;2022-07-19T06:38:41;101834.38;;;24.25;51.97
71601;BME280;59446;52.192;4.628;2022-07-19T06:41:07;101835.44;;;24.22;52.23
71601;BME280;59446;52.192;4.628;2022-07-19T06:43:33;101839.63;;;24.14;52.58
71601;BME280;59446;52.192;4.628;2022-07-19T06:45:59;101837.25;;;24.22;52.15
71601;BME280;59446;52.192;4.628;2022-07-19T06:48:25;101837.69;;;24.16;52.62
71601;BME280;59446;52.192;4.628;2022-07-19T06:50:50;101841.22;;;24.16;51.97
71601;BME280;59446;52.192;4.628;2022-07-19T06:53:16;101835.88;;;24.16;52.01
71601;BME280;59446;52.192;4.628;2022-07-19T06:55:41;101833.13;;;24.18;51.28
71601;BME280;59446;52.192;4.628;2022-07-19T06:58:07;101833.84;;;24.20;51.18
71601;BME280;59446;52.192;4.628;2022-07-19T07:00:32;101831.72;;;24.25;51.31
71601;BME280;59446;52.192;4.628;2022-07-19T07:02:58;101825.34;;;24.28;50.94
71601;BME280;59446;52.192;4.628;2022-07-19T07:05:23;101821.84;;;24.27;50.61
71601;BME280;59446;52.192;4.628;2022-07-19T07:07:49;101820.75;;;24.30;50.50
71601;BME280;59446;52.192;4.628;2022-07-19T07:10:16;101825.78;;;24.34;50.75
71601;BME280;59446;52.192;4.628;2022-07-19T07:12:42;101832.47;;;24.40;50.73
71601;BME280;59446;52.192;4.628;2022-07-19T07:15:08;101822.69;;;24.40;51.03
71601;BME280;59446;52.192;4.628;2022-07-19T07:17:35;101814.25;;;24.46;50.35
71601;BME280;59446;52.192;4.628;2022-07-19T07:20:01;101819.28;;;24.51;50.17
71601;BME280;59446;52.192;4.628;2022-07-19T07:22:27;101816.50;;;24.52;50.24
71601;BME280;59446;52.192;4.628;2022-07-19T07:24:52;101809.13;;;24.56;50.39
71601;BME280;59446;52.192;4.628;2022-07-19T07:27:17;101806.13;;;24.61;50.77
71601;BME280;59446;52.192;4.628;2022-07-19T07:29:43;101810.28;;;24.65;51.18
71601;BME280;59446;52.192;4.628;2022-07-19T07:32:08;101811.75;;;24.69;51.08
71601;BME280;59446;52.192;4.628;2022-07-19T07:34:34;101805.88;;;24.76;50.87
71601;BME280;59446;52.192;4.628;2022-07-19T07:36:59;101808.31;;;24.79;50.51
71601;BME280;59446;52.192;4.628;2022-07-19T07:39:25;101809.78;;;24.83;50.27
71601;BME280;59446;52.192;4.628;2022-07-19T07:41:50;101802.31;;;24.89;49.96
71601;BME280;59446;52.192;4.628;2022-07-19T07:44:15;101800.25;;;24.92;50.10
71601;BME280;59446;52.192;4.628;2022-07-19T07:46:41;101808.66;;;24.99;50.66
71601;BME280;59446;52.192;4.628;2022-07-19T07:49:06;101805.69;;;25.03;49.87
71601;BME280;59446;52.192;4.628;2022-07-19T07:51:32;101805.09;;;25.11;49.83
71601;BME280;59446;52.192;4.628;2022-07-19T07:53:59;101801.16;;;25.17;49.78
71601;BME280;59446;52.192;4.628;2022-07-19T07:56:25;101797.28;;;25.21;49.75
71601;BME280;59446;52.192;4.628;2022-07-19T07:58:50;101802.41;;;25.24;49.37
71601;BME280;59446;52.192;4.628;2022-07-19T08:01:16;101789.56;;;25.29;49.09
71601;BME280;59446;52.192;4.628;2022-07-19T08:03:42;101789.31;;;25.32;49.62
71601;BME280;59446;52.192;4.628;2022-07-19T08:06:07;101790.78;;;25.36;49.51
71601;BME280;59446;52.192;4.628;2022-07-19T08:08:33;101791.44;;;25.39;49.76
71601;BME280;59446;52.192;4.628;2022-07-19T08:10:58;101789.25;;;25.44;49.89
71601;BME280;59446;52.192;4.628;2022-07-19T08:13:24;101791.81;;;25.46;50.10
71601;BME280;59446;52.192;4.628;2022-07-19T08:15:50;101781.97;;;25.46;50.38
71601;BME280;59446;52.192;4.628;2022-07-19T08:18:16;101786.59;;;25.44;50.74
71601;BME280;59446;52.192;4.628;2022-07-19T08:20:42;101781.75;;;25.50;50.56
71601;BME280;59446;52.192;4.628;2022-07-19T08:23:07;101776.16;;;25.53;51.02
71601;BME280;59446;52.192;4.628;2022-07-19T08:25:33;101778.59;;;25.56;50.81
71601;BME280;59446;52.192;4.628;2022-07-19T08:27:59;101779.22;;;25.59;50.41
71601;BME280;59446;52.192;4.628;2022-07-19T08:30:25;101771.88;;;25.63;50.24
71601;BME280;59446;52.192;4.628;2022-07-19T08:32:51;101772.72;;;25.63;50.52
71601;BME280;59446;52.192;4.628;2022-07-19T08:35:16;101768.97;;;25.66;50.43
71601;BME280;59446;52.192;4.628;2022-07-19T08:37:41;101768.72;;;25.69;50.58
71601;BME280;59446;52.192;4.628;2022-07-19T08:40:07;101765.81;;;25.72;50.14
71601;BME280;59446;52.192;4.628;2022-07-19T08:42:34;101773.81;;;25.72;50.31
71601;BME280;59446;52.192;4.628;2022-07-19T08:45:01;101769.81;;;25.66;50.27
71601;BME280;59446;52.192;4.628;2022-07-19T08:47:28;101768.47;;;25.72;48.80
71601;BME280;59446;52.192;4.628;2022-07-19T08:49:54;101773.81;;;25.72;48.57
71601;BME280;59446;52.192;4.628;2022-07-19T08:52:19;101779.88;;;25.74;48.83
71601;BME280;59446;52.192;4.628;2022-07-19T08:54:46;101782.31;;;25.77;49.52
71601;BME280;59446;52.192;4.628;2022-07-19T08:57:12;101775.03;;;25.79;49.19
71601;BME280;59446;52.192;4.628;2022-07-19T08:59:56;101773.22;;;25.80;49.27
71601;BME280;59446;52.192;4.628;2022-07-19T09:02:25;101766.78;;;25.82;49.49
71601;BME280;59446;52.192;4.628;2022-07-19T09:05:01;101759.75;;;25.81;49.29
71601;BME280;59446;52.192;4.628;2022-07-19T09:07:27;101767.53;;;25.84;49.07
71601;BME280;59446;52.192;4.628;2022-07-19T09:10:17;101766.31;;;25.88;49.35
71601;BME280;59446;52.192;4.628;2022-07-19T09:13:03;101769.72;;;25.90;48.94
71601;BME280;59446;52.192;4.628;2022-07-19T09:15:48;101772.75;;;25.97;48.86
71601;BME280;59446;52.192;4.628;2022-07-19T09:18:25;101765.59;;;25.97;49.21
71601;BME280;59446;52.192;4.628;2022-07-19T09:20:54;101769.84;;;26.00;49.50
71601;BME280;59446;52.192;4.628;2022-07-19T09:23:21;101766.06;;;26.02;49.21
71601;BME280;59446;52.192;4.628;2022-07-19T09:25:49;101769.34;;;26.06;49.41
71601;BME280;59446;52.192;4.628;2022-07-19T09:28:17;101763.78;;;26.09;49.00
71601;BME280;59446;52.192;4.628;2022-07-19T09:30:45;101769.13;;;26.09;49.29
71601;BME280;59446;52.192;4.628;2022-07-19T09:33:12;101761.59;;;26.14;49.09
71601;BME280;59446;52.192;4.628;2022-07-19T09:36:01;101761.47;;;26.16;49.02
71601;BME280;59446;52.192;4.628;2022-07-19T09:38:31;101757.69;;;26.18;48.92
71601;BME280;59446;52.192;4.628;2022-07-19T09:43:51;101754.44;;;26.26;48.30
71601;BME280;59446;52.192;4.628;2022-07-19T09:46:36;101747.78;;;26.31;48.20
71601;BME280;59446;52.192;4.628;2022-07-19T09:49:13;101743.63;;;26.39;48.20
71601;BME280;59446;52.192;4.628;2022-07-19T09:51:40;101747.75;;;26.43;48.27
71601;BME280;59446;52.192;4.628;2022-07-19T09:54:08;101737.19;;;26.41;48.30
71601;BME280;59446;52.192;4.628;2022-07-19T09:56:36;101739.47;;;26.46;48.13
71601;BME280;59446;52.192;4.628;2022-07-19T09:59:02;101738.38;;;26.48;48.17
71601;BME280;59446;52.192;4.628;2022-07-19T10:01:28;101739.84;;;26.52;47.70
71601;BME280;59446;52.192;4.628;2022-07-19T10:03:56;101738.50;;;26.58;47.54
71601;BME280;59446;52.192;4.628;2022-07-19T10:06:25;101729.97;;;26.64;47.26
71601;BME280;59446;52.192;4.628;2022-07-19T10:08:50;101738.31;;;26.71;47.12
71601;BME280;59446;52.192;4.628;2022-07-19T10:11:17;101732.84;;;26.72;47.29
71601;BME280;59446;52.192;4.628;2022-07-19T10:13:43;101735.38;;;26.74;47.25
71601;BME280;59446;52.192;4.628;2022-07-19T10:16:13;101729.94;;;26.75;47.16
71601;BME280;59446;52.192;4.628;2022-07-19T10:19:02;101721.53;;;26.80;47.15
71601;BME280;59446;52.192;4.628;2022-07-19T10:21:28;101718.47;;;26.84;47.05
71601;BME280;59446;52.192;4.628;2022-07-19T10:23:55;101725.56;;;26.85;47.00
71601;BME280;59446;52.192;4.628;2022-07-19T10:26:34;101711.53;;;26.93;46.74
71601;BME280;59446;52.192;4.628;2022-07-19T10:29:16;101705.81;;;26.98;46.67
71601;BME280;59446;52.192;4.628;2022-07-19T10:31:42;101711.88;;;27.00;46.67
71601;BME280;59446;52.192;4.628;2022-07-19T10:34:10;101713.59;;;27.01;46.79
71601;BME280;59446;52.192;4.628;2022-07-19T10:36:48;101702.63;;;27.04;46.70
71601;BME280;59446;52.192;4.628;2022-07-19T10:39:27;101711.09;;;27.09;46.74
71601;BME280;59446;52.192;4.628;2022-07-19T10:50:08;101695.25;;;27.17;46.73
71601;BME280;59446;52.192;4.628;2022-07-19T10:52:35;101690.59;;;27.19;46.24
71601;BME280;59446;52.192;4.628;2022-07-19T11:00:31;101684.50;;;27.28;46.93
71601;BME280;59446;52.192;4.628;2022-07-19T11:05:56;101673.25;;;27.34;46.46
71601;BME280;59446;52.192;4.628;2022-07-19T11:11:15;101673.13;;;27.36;46.15
71601;BME280;59446;52.192;4.628;2022-07-19T11:13:47;101672.97;;;27.37;46.11
71601;BME280;59446;52.192;4.628;2022-07-19T11:16:13;101667.38;;;27.40;45.63
71601;BME280;59446;52.192;4.628;2022-07-19T11:18:39;101664.69;;;27.40;45.42
71601;BME280;59446;52.192;4.628;2022-07-19T11:21:05;101665.28;;;27.44;45.50
71601;BME280;59446;52.192;4.628;2022-07-19T11:23:34;101664.34;;;27.45;45.67
71601;BME280;59446;52.192;4.628;2022-07-19T11:26:11;101657.25;;;27.44;45.50
71601;BME280;59446;52.192;4.628;2022-07-19T11:28:38;101657.16;;;27.45;45.72
71601;BME280;59446;52.192;4.628;2022-07-19T11:31:33;101655.91;;;27.49;45.62
71601;BME280;59446;52.192;4.628;2022-07-19T11:33:59;101649.44;;;27.52;45.41
71601;BME280;59446;52.192;4.628;2022-07-19T11:36:26;101650.16;;;27.54;45.55
71601;BME280;59446;52.192;4.628;2022-07-19T11:38:57;101648.63;;;27.61;45.05
71601;BME280;59446;52.192;4.628;2022-07-19T11:41:29;101649.66;;;27.70;45.00
71601;BME280;59446;52.192;4.628;2022-07-19T11:46:29;101648.25;;;27.75;44.26
71601;BME280;59446;52.192;4.628;2022-07-19T11:49:01;101645.31;;;27.78;44.35
71601;BME280;59446;52.192;4.628;2022-07-19T11:51:27;101646.56;;;27.74;43.75
71601;BME280;59446;52.192;4.628;2022-07-19T11:53:55;101643.22;;;27.82;43.83
71601;BME280;59446;52.192;4.628;2022-07-19T11:56:25;101637.84;;;27.82;43.72
71601;BME280;59446;52.192;4.628;2022-07-19T11:58:52;101635.75;;;27.85;43.40
71601;BME280;59446;52.192;4.628;2022-07-19T12:03:56;101638.03;;;27.90;42.76
71601;BME280;59446;52.192;4.628;2022-07-19T12:06:37;101621.41;;;27.96;42.84
71601;BME280;59446;52.192;4.628;2022-07-19T12:09:07;101622.13;;;27.98;43.20
71601;BME280;59446;52.192;4.628;2022-07-19T12:11:48;101617.88;;;27.96;43.15
71601;BME280;59446;52.192;4.628;2022-07-19T12:16:48;101618.47;;;27.99;42.85
71601;BME280;59446;52.192;4.628;2022-07-19T12:19:14;101609.56;;;27.99;43.60
71601;BME280;59446;52.192;4.628;2022-07-19T12:21:43;101607.47;;;28.02;42.44
71601;BME280;59446;52.192;4.628;2022-07-19T12:26:36;101606.22;;;28.06;42.52
71601;BME280;59446;52.192;4.628;2022-07-19T12:29:19;101607.53;;;28.12;42.47
71601;BME280;59446;52.192;4.628;2022-07-19T12:31:46;101603.72;;;28.14;42.67
71601;BME280;59446;52.192;4.628;2022-07-19T12:34:13;101599.22;;;28.15;42.63
71601;BME280;59446;52.192;4.628;2022-07-19T12:36:38;101589.34;;;28.15;42.75
71601;BME280;59446;52.192;4.628;2022-07-19T12:39:04;101591.03;;;28.16;42.12
71601;BME280;59446;52.192;4.628;2022-07-19T12:41:29;101589.34;;;28.15;42.15
71601;BME280;59446;52.192;4.628;2022-07-19T12:43:55;101586.94;;;28.22;41.93
71601;BME280;59446;52.192;4.628;2022-07-19T12:46:20;101591.19;;;28.34;41.27
71601;BME280;59446;52.192;4.628;2022-07-19T12:48:46;101593.28;;;28.31;41.28
71601;BME280;59446;52.192;4.628;2022-07-19T12:51:12;101589.63;;;28.41;40.25
71601;BME280;59446;52.192;4.628;2022-07-19T12:53:37;101586.50;;;28.46;40.45
71601;BME280;59446;52.192;4.628;2022-07-19T12:56:03;101583.69;;;28.47;39.81
71601;BME280;59446;52.192;4.628;2022-07-19T12:58:28;101584.53;;;28.48;39.90
71601;BME280;59446;52.192;4.628;2022-07-19T13:01:12;101577.75;;;28.54;39.63
71601;BME280;59446;52.192;4.628;2022-07-19T13:03:39;101571.00;;;28.59;39.83
71601;BME280;59446;52.192;4.628;2022-07-19T13:06:05;101572.97;;;28.57;39.51
71601;BME280;59446;52.192;4.628;2022-07-19T13:08:31;101566.88;;;28.55;39.53
71601;BME280;59446;52.192;4.628;2022-07-19T13:10:56;101562.13;;;28.68;39.73
71601;BME280;59446;52.192;4.628;2022-07-19T13:13:24;101559.69;;;28.75;39.38
71601;BME280;59446;52.192;4.628;2022-07-19T13:15:52;101553.78;;;28.81;39.17
71601;BME280;59446;52.192;4.628;2022-07-19T13:18:17;101557.72;;;28.77;40.05
71601;BME280;59446;52.192;4.628;2022-07-19T13:20:43;101557.72;;;28.77;40.26